sensor_id;sensor_type;location;lat;lon;timestamp;P1;durP1;ratioP1;P2;durP2;ratioP2
8540;SDS011;4308;51.294;6.590;2022-12-20T00:01:50;4.00;;;2.40;;
8540;SDS011;4308;51.294;6.590;2022-12-20T00:04:17;4.00;;;2.27;;
8540;SDS011;4308;51.294;6.590;2022-12-20T00:06:48;3.20;;;2.23;;
8540;SDS011;4308;51.294;6.590;2022-12-20T00:09:15;5.70;;;2.50;;
8540;SDS011;4308;51.294;6.590;2022-12-20T00:11:45;4.37;;;2.33;;
8540;SDS011;4308;51.294;6.590;2022-12-20T00:14:12;3.37;;;2.33;;
8540;SDS011;4308;51.294;6.590;2022-12-20T00:16:40;3.93;;;2.47;;
8540;SDS011;4308;51.294;6.590;2022-12-20T00:19:08;2.93;;;2.33;;
8540;SDS011;4308;51.294;6.590;2022-12-20T00:21:36;4.23;;;2.07;;
8540;SDS011;4308;51.294;6.590;2022-12-20T00:24:04;4.63;;;2.10;;
8540;SDS011;4308;51.294;6.590;2022-12-20T00:26:33;3.23;;;2.57;;
8540;SDS011;4308;51.294;6.590;2022-12-20T00:29:01;2.33;;;2.07;;
8540;SDS011;4308;51.294;6.590;2022-12-20T00:31:29;6.53;;;2.80;;
8540;SDS011;4308;51.294;6.590;2022-12-20T00:33:58;3.87;;;2.37;;
8540;SDS011;4308;51.294;6.590;2022-12-20T00:36:26;4.47;;;2.37;;
8540;SDS011;4308;51.294;6.590;2022-12-20T00:38:55;5.93;;;2.50;;
8540;SDS011;4308;51.294;6.590;2022-12-20T00:41:24;3.23;;;2.03;;
8540;SDS011;4308;51.294;6.590;2022-12-20T00:43:52;2.80;;;1.93;;
8540;SDS011;4308;51.294;6.590;2022-12-20T00:46:20;5.83;;;2.40;;
8540;SDS011;4308;51.294;6.590;2022-12-20T00:48:48;3.03;;;2.10;;
8540;SDS011;4308;51.294;6.590;2022-12-20T00:51:17;5.13;;;2.40;;
8540;SDS011;4308;51.294;6.590;2022-12-20T00:53:44;6.53;;;2.80;;
8540;SDS011;4308;51.294;6.590;2022-12-20T00:56:12;3.97;;;2.67;;
8540;SDS011;4308;51.294;6.590;2022-12-20T00:58:40;2.87;;;2.10;;
8540;SDS011;4308;51.294;6.590;2022-12-20T01:01:20;4.97;;;2.20;;
8540;SDS011;4308;51.294;6.590;2022-12-20T01:03:48;4.70;;;2.07;;
8540;SDS011;4308;51.294;6.590;2022-12-20T01:06:16;3.73;;;2.17;;
8540;SDS011;4308;51.294;6.590;2022-12-20T01:08:44;6.27;;;2.57;;
8540;SDS011;4308;51.294;6.590;2022-12-20T01:11:33;4.73;;;2.20;;
8540;SDS011;4308;51.294;6.590;2022-12-20T01:14:00;7.20;;;2.20;;
8540;SDS011;4308;51.294;6.590;2022-12-20T01:16:38;4.63;;;1.97;;
8540;SDS011;4308;51.294;6.590;2022-12-20T01:19:06;4.17;;;2.53;;
8540;SDS011;4308;51.294;6.590;2022-12-20T01:21:34;4.87;;;1.90;;
8540;SDS011;4308;51.294;6.590;2022-12-20T01:24:01;2.43;;;1.80;;
8540;SDS011;4308;51.294;6.590;2022-12-20T01:26:29;2.57;;;2.17;;
8540;SDS011;4308;51.294;6.590;2022-12-20T01:28:57;5.70;;;2.13;;
8540;SDS011;4308;51.294;6.590;2022-12-20T01:31:26;2.63;;;1.97;;
8540;SDS011;4308;51.294;6.590;2022-12-20T01:33:54;3.60;;;2.07;;
8540;SDS011;4308;51.294;6.590;2022-12-20T01:36:23;4.40;;;2.03;;
8540;SDS011;4308;51.294;6.590;2022-12-20T01:38:54;3.07;;;2.10;;
8540;SDS011;4308;51.294;6.590;2022-12-20T01:41:22;4.90;;;2.00;;
8540;SDS011;4308;51.294;6.590;2022-12-20T01:46:18;5.43;;;2.10;;
8540;SDS011;4308;51.294;6.590;2022-12-20T01:48:51;4.57;;;2.13;;
8540;SDS011;4308;51.294;6.590;2022-12-20T01:51:19;5.30;;;2.23;;
8540;SDS011;4308;51.294;6.590;2022-12-20T01:53:47;2.37;;;2.00;;
8540;SDS011;4308;51.294;6.590;2022-12-20T01:56:17;3.37;;;2.50;;
8540;SDS011;4308;51.294;6.590;2022-12-20T01:58:44;3.53;;;2.00;;
8540;SDS011;4308;51.294;6.590;2022-12-20T02:01:12;3.17;;;1.90;;
8540;SDS011;4308;51.294;6.590;2022-12-20T02:03:41;2.57;;;1.93;;
8540;SDS011;4308;51.294;6.590;2022-12-20T02:06:13;3.53;;;2.23;;
8540;SDS011;4308;51.294;6.590;2022-12-20T02:08:41;5.30;;;2.40;;
8540;SDS011;4308;51.294;6.590;2022-12-20T02:16:10;2.30;;;2.07;;
8540;SDS011;4308;51.294;6.590;2022-12-20T02:18:43;2.30;;;2.00;;
8540;SDS011;4308;51.294;6.590;2022-12-20T02:21:32;5.40;;;2.07;;
8540;SDS011;4308;51.294;6.590;2022-12-20T02:31:45;3.27;;;2.30;;
8540;SDS011;4308;51.294;6.590;2022-12-20T02:34:14;5.63;;;2.17;;
8540;SDS011;4308;51.294;6.590;2022-12-20T02:36:42;4.03;;;2.50;;
8540;SDS011;4308;51.294;6.590;2022-12-20T02:39:11;2.73;;;2.30;;
8540;SDS011;4308;51.294;6.590;2022-12-20T02:41:40;2.43;;;2.10;;
8540;SDS011;4308;51.294;6.590;2022-12-20T02:44:09;5.10;;;2.27;;
8540;SDS011;4308;51.294;6.590;2022-12-20T02:46:38;5.00;;;2.13;;
8540;SDS011;4308;51.294;6.590;2022-12-20T02:49:07;4.27;;;2.30;;
8540;SDS011;4308;51.294;6.590;2022-12-20T02:51:36;3.47;;;1.87;;
8540;SDS011;4308;51.294;6.590;2022-12-20T02:54:04;3.87;;;2.20;;
8540;SDS011;4308;51.294;6.590;2022-12-20T02:56:33;3.57;;;2.60;;
8540;SDS011;4308;51.294;6.590;2022-12-20T02:59:05;7.03;;;2.33;;
8540;SDS011;4308;51.294;6.590;2022-12-20T03:01:38;4.10;;;2.63;;
8540;SDS011;4308;51.294;6.590;2022-12-20T03:04:07;3.67;;;2.30;;
8540;SDS011;4308;51.294;6.590;2022-12-20T03:06:35;6.13;;;2.60;;
8540;SDS011;4308;51.294;6.590;2022-12-20T03:09:02;4.73;;;2.37;;
8540;SDS011;4308;51.294;6.590;2022-12-20T03:11:30;6.43;;;2.60;;
8540;SDS011;4308;51.294;6.590;2022-12-20T03:13:57;5.07;;;2.20;;
8540;SDS011;4308;51.294;6.590;2022-12-20T03:16:25;7.33;;;2.60;;
8540;SDS011;4308;51.294;6.590;2022-12-20T03:18:52;3.83;;;2.60;;
8540;SDS011;4308;51.294;6.590;2022-12-20T03:21:20;3.63;;;2.30;;
8540;SDS011;4308;51.294;6.590;2022-12-20T03:23:47;5.80;;;2.80;;
8540;SDS011;4308;51.294;6.590;2022-12-20T03:26:15;4.87;;;2.40;;
8540;SDS011;4308;51.294;6.590;2022-12-20T03:28:42;7.30;;;2.80;;
8540;SDS011;4308;51.294;6.590;2022-12-20T03:31:10;4.80;;;3.00;;
8540;SDS011;4308;51.294;6.590;2022-12-20T03:33:37;4.33;;;2.80;;
8540;SDS011;4308;51.294;6.590;2022-12-20T03:36:05;5.53;;;2.87;;
8540;SDS011;4308;51.294;6.590;2022-12-20T03:38:32;5.33;;;2.93;;
8540;SDS011;4308;51.294;6.590;2022-12-20T03:41:00;5.33;;;3.30;;
8540;SDS011;4308;51.294;6.590;2022-12-20T03:43:27;6.60;;;3.10;;
8540;SDS011;4308;51.294;6.590;2022-12-20T03:45:55;5.83;;;3.10;;
8540;SDS011;4308;51.294;6.590;2022-12-20T03:48:22;4.60;;;3.50;;
8540;SDS011;4308;51.294;6.590;2022-12-20T03:50:50;5.97;;;3.47;;
8540;SDS011;4308;51.294;6.590;2022-12-20T03:53:17;5.97;;;3.47;;
8540;SDS011;4308;51.294;6.590;2022-12-20T03:55:45;8.40;;;3.27;;
8540;SDS011;4308;51.294;6.590;2022-12-20T03:58:12;4.43;;;3.17;;
8540;SDS011;4308;51.294;6.590;2022-12-20T04:00:40;4.87;;;3.43;;
8540;SDS011;4308;51.294;6.590;2022-12-20T04:03:08;4.90;;;3.53;;
8540;SDS011;4308;51.294;6.590;2022-12-20T04:05:35;6.07;;;3.90;;
8540;SDS011;4308;51.294;6.590;2022-12-20T04:08:03;4.40;;;3.13;;
8540;SDS011;4308;51.294;6.590;2022-12-20T04:10:30;4.97;;;3.77;;
8540;SDS011;4308;51.294;6.590;2022-12-20T04:12:58;11.33;;;4.37;;
8540;SDS011;4308;51.294;6.590;2022-12-20T04:15:25;6.33;;;3.87;;
8540;SDS011;4308;51.294;6.590;2022-12-20T04:17:53;5.83;;;3.80;;
8540;SDS011;4308;51.294;6.590;2022-12-20T04:20:20;5.03;;;3.57;;
8540;SDS011;4308;51.294;6.590;2022-12-20T04:22:49;4.03;;;3.63;;
8540;SDS011;4308;51.294;6.590;2022-12-20T04:25:17;6.03;;;3.90;;
8540;SDS011;4308;51.294;6.590;2022-12-20T04:27:45;5.50;;;4.10;;
8540;SDS011;4308;51.294;6.590;2022-12-20T04:30:13;8.40;;;4.00;;
8540;SDS011;4308;51.294;6.590;2022-12-20T04:32:40;6.10;;;4.03;;
8540;SDS011;4308;51.294;6.590;2022-12-20T04:35:08;5.30;;;4.07;;
8540;SDS011;4308;51.294;6.590;2022-12-20T04:37:35;12.20;;;5.00;;
8540;SDS011;4308;51.294;6.590;2022-12-20T04:40:03;4.13;;;3.73;;
8540;SDS011;4308;51.294;6.590;2022-12-20T04:42:31;7.90;;;4.50;;
8540;SDS011;4308;51.294;6.590;2022-12-20T04:44:58;5.00;;;4.33;;
8540;SDS011;4308;51.294;6.590;2022-12-20T04:47:26;5.33;;;3.80;;
8540;SDS011;4308;51.294;6.590;2022-12-20T04:49:53;5.87;;;4.40;;
8540;SDS011;4308;51.294;6.590;2022-12-20T04:52:21;6.10;;;4.23;;
8540;SDS011;4308;51.294;6.590;2022-12-20T04:54:48;6.80;;;4.70;;
8540;SDS011;4308;51.294;6.590;2022-12-20T04:57:18;9.87;;;4.80;;
8540;SDS011;4308;51.294;6.590;2022-12-20T04:59:45;9.97;;;4.97;;
8540;SDS011;4308;51.294;6.590;2022-12-20T05:02:13;11.30;;;4.80;;
8540;SDS011;4308;51.294;6.590;2022-12-20T05:04:40;6.27;;;4.43;;
8540;SDS011;4308;51.294;6.590;2022-12-20T05:07:08;8.50;;;4.60;;
8540;SDS011;4308;51.294;6.590;2022-12-20T05:09:35;7.47;;;4.83;;
8540;SDS011;4308;51.294;6.590;2022-12-20T05:12:03;9.13;;;4.50;;
8540;SDS011;4308;51.294;6.590;2022-12-20T05:14:30;9.50;;;5.30;;
8540;SDS011;4308;51.294;6.590;2022-12-20T05:16:58;8.70;;;4.80;;
8540;SDS011;4308;51.294;6.590;2022-12-20T05:19:25;6.77;;;4.50;;
8540;SDS011;4308;51.294;6.590;2022-12-20T05:21:53;6.33;;;4.17;;
8540;SDS011;4308;51.294;6.590;2022-12-20T05:24:20;6.90;;;4.70;;
8540;SDS011;4308;51.294;6.590;2022-12-20T05:26:48;9.87;;;4.57;;
8540;SDS011;4308;51.294;6.590;2022-12-20T05:29:15;7.73;;;4.53;;
8540;SDS011;4308;51.294;6.590;2022-12-20T05:31:43;8.40;;;5.13;;
8540;SDS011;4308;51.294;6.590;2022-12-20T05:34:11;8.20;;;4.83;;
8540;SDS011;4308;51.294;6.590;2022-12-20T05:36:38;6.43;;;4.20;;
8540;SDS011;4308;51.294;6.590;2022-12-20T05:39:06;7.87;;;4.50;;
8540;SDS011;4308;51.294;6.590;2022-12-20T05:41:33;5.27;;;4.30;;
8540;SDS011;4308;51.294;6.590;2022-12-20T05:44:01;6.07;;;4.80;;
8540;SDS011;4308;51.294;6.590;2022-12-20T05:46:28;6.37;;;4.60;;
8540;SDS011;4308;51.294;6.590;2022-12-20T05:48:56;10.83;;;4.30;;
8540;SDS011;4308;51.294;6.590;2022-12-20T05:51:25;6.57;;;4.77;;
8540;SDS011;4308;51.294;6.590;2022-12-20T05:53:55;6.53;;;4.63;;
8540;SDS011;4308;51.294;6.590;2022-12-20T05:56:22;8.63;;;4.13;;
8540;SDS011;4308;51.294;6.590;2022-12-20T05:58:50;7.80;;;4.17;;
8540;SDS011;4308;51.294;6.590;2022-12-20T06:01:17;6.83;;;4.07;;
8540;SDS011;4308;51.294;6.590;2022-12-20T06:03:45;9.50;;;4.73;;
8540;SDS011;4308;51.294;6.590;2022-12-20T06:06:13;5.93;;;4.20;;
8540;SDS011;4308;51.294;6.590;2022-12-20T06:08:41;4.47;;;3.70;;
8540;SDS011;4308;51.294;6.590;2022-12-20T06:11:09;6.00;;;4.40;;
8540;SDS011;4308;51.294;6.590;2022-12-20T06:13:36;7.20;;;4.40;;
8540;SDS011;4308;51.294;6.590;2022-12-20T06:16:04;7.10;;;4.70;;
8540;SDS011;4308;51.294;6.590;2022-12-20T06:18:34;7.03;;;4.57;;
8540;SDS011;4308;51.294;6.590;2022-12-20T06:21:02;7.03;;;5.20;;
8540;SDS011;4308;51.294;6.590;2022-12-20T06:23:29;7.00;;;4.67;;
8540;SDS011;4308;51.294;6.590;2022-12-20T06:25:57;9.80;;;4.20;;
8540;SDS011;4308;51.294;6.590;2022-12-20T06:28:27;7.00;;;4.53;;
8540;SDS011;4308;51.294;6.590;2022-12-20T06:30:55;7.17;;;4.13;;
8540;SDS011;4308;51.294;6.590;2022-12-20T06:33:23;6.00;;;4.73;;
8540;SDS011;4308;51.294;6.590;2022-12-20T06:35:51;8.17;;;4.50;;
8540;SDS011;4308;51.294;6.590;2022-12-20T06:38:18;9.87;;;4.20;;
8540;SDS011;4308;51.294;6.590;2022-12-20T06:40:46;6.97;;;3.90;;
8540;SDS011;4308;51.294;6.590;2022-12-20T06:43:14;5.17;;;3.70;;
8540;SDS011;4308;51.294;6.590;2022-12-20T06:45:41;7.20;;;4.13;;
8540;SDS011;4308;51.294;6.590;2022-12-20T06:48:09;6.63;;;4.07;;
8540;SDS011;4308;51.294;6.590;2022-12-20T06:50:37;6.63;;;3.80;;
8540;SDS011;4308;51.294;6.590;2022-12-20T06:53:05;10.97;;;4.77;;
8540;SDS011;4308;51.294;6.590;2022-12-20T06:55:33;8.93;;;4.60;;
8540;SDS011;4308;51.294;6.590;2022-12-20T06:58:00;7.40;;;4.30;;
8540;SDS011;4308;51.294;6.590;2022-12-20T07:00:28;6.47;;;4.13;;
8540;SDS011;4308;51.294;6.590;2022-12-20T07:02:55;5.50;;;4.10;;
8540;SDS011;4308;51.294;6.590;2022-12-20T07:05:23;7.47;;;4.13;;
8540;SDS011;4308;51.294;6.590;2022-12-20T07:07:51;6.50;;;3.87;;
8540;SDS011;4308;51.294;6.590;2022-12-20T07:10:18;4.47;;;3.43;;
8540;SDS011;4308;51.294;6.590;2022-12-20T07:12:46;7.23;;;4.20;;
8540;SDS011;4308;51.294;6.590;2022-12-20T07:15:14;4.83;;;3.57;;
8540;SDS011;4308;51.294;6.590;2022-12-20T07:17:42;5.53;;;4.03;;
8540;SDS011;4308;51.294;6.590;2022-12-20T07:20:10;7.53;;;4.07;;
8540;SDS011;4308;51.294;6.590;2022-12-20T07:22:40;7.73;;;4.03;;
8540;SDS011;4308;51.294;6.590;2022-12-20T07:25:07;4.77;;;3.40;;
8540;SDS011;4308;51.294;6.590;2022-12-20T07:27:35;5.83;;;3.83;;
8540;SDS011;4308;51.294;6.590;2022-12-20T07:30:03;7.57;;;3.60;;
8540;SDS011;4308;51.294;6.590;2022-12-20T07:32:31;8.43;;;4.10;;
8540;SDS011;4308;51.294;6.590;2022-12-20T07:34:58;4.93;;;3.73;;
8540;SDS011;4308;51.294;6.590;2022-12-20T07:37:27;4.57;;;3.33;;
8540;SDS011;4308;51.294;6.590;2022-12-20T07:39:54;5.73;;;3.53;;
8540;SDS011;4308;51.294;6.590;2022-12-20T07:42:22;4.83;;;3.70;;
8540;SDS011;4308;51.294;6.590;2022-12-20T07:45:01;7.33;;;4.00;;
8540;SDS011;4308;51.294;6.590;2022-12-20T07:47:28;4.97;;;3.80;;
8540;SDS011;4308;51.294;6.590;2022-12-20T07:49:56;9.90;;;3.90;;
8540;SDS011;4308;51.294;6.590;2022-12-20T07:52:23;5.67;;;4.17;;
8540;SDS011;4308;51.294;6.590;2022-12-20T07:54:53;6.43;;;3.50;;
8540;SDS011;4308;51.294;6.590;2022-12-20T07:57:28;5.77;;;3.33;;
8540;SDS011;4308;51.294;6.590;2022-12-20T07:59:56;5.67;;;3.80;;
8540;SDS011;4308;51.294;6.590;2022-12-20T08:02:34;6.07;;;3.10;;
8540;SDS011;4308;51.294;6.590;2022-12-20T08:05:03;4.80;;;3.53;;
8540;SDS011;4308;51.294;6.590;2022-12-20T08:07:35;4.47;;;3.43;;
8540;SDS011;4308;51.294;6.590;2022-12-20T08:10:04;4.53;;;3.47;;
8540;SDS011;4308;51.294;6.590;2022-12-20T08:12:33;4.10;;;3.63;;
8540;SDS011;4308;51.294;6.590;2022-12-20T08:15:01;6.90;;;4.07;;
8540;SDS011;4308;51.294;6.590;2022-12-20T08:17:28;5.53;;;3.23;;
8540;SDS011;4308;51.294;6.590;2022-12-20T08:19:56;5.67;;;2.87;;
8540;SDS011;4308;51.294;6.590;2022-12-20T08:22:23;5.87;;;3.83;;
8540;SDS011;4308;51.294;6.590;2022-12-20T08:24:51;5.27;;;3.90;;
8540;SDS011;4308;51.294;6.590;2022-12-20T08:27:18;6.27;;;4.27;;
8540;SDS011;4308;51.294;6.590;2022-12-20T08:29:46;6.37;;;3.80;;
8540;SDS011;4308;51.294;6.590;2022-12-20T08:32:13;5.13;;;3.83;;
8540;SDS011;4308;51.294;6.590;2022-12-20T08:34:41;4.80;;;3.23;;
8540;SDS011;4308;51.294;6.590;2022-12-20T08:37:08;4.93;;;3.33;;
8540;SDS011;4308;51.294;6.590;2022-12-20T08:39:40;5.83;;;3.57;;
8540;SDS011;4308;51.294;6.590;2022-12-20T08:42:08;5.57;;;3.40;;
8540;SDS011;4308;51.294;6.590;2022-12-20T08:44:36;5.70;;;4.07;;
8540;SDS011;4308;51.294;6.590;2022-12-20T08:47:03;4.67;;;3.23;;
8540;SDS011;4308;51.294;6.590;2022-12-20T08:49:31;7.17;;;3.70;;
8540;SDS011;4308;51.294;6.590;2022-12-20T08:52:01;4.80;;;3.73;;
8540;SDS011;4308;51.294;6.590;2022-12-20T08:54:28;5.73;;;3.27;;
8540;SDS011;4308;51.294;6.590;2022-12-20T08:56:56;3.97;;;3.00;;
8540;SDS011;4308;51.294;6.590;2022-12-20T08:59:23;4.57;;;3.13;;
8540;SDS011;4308;51.294;6.590;2022-12-20T09:01:51;6.90;;;3.53;;
8540;SDS011;4308;51.294;6.590;2022-12-20T09:04:19;3.80;;;2.90;;
8540;SDS011;4308;51.294;6.590;2022-12-20T09:06:46;7.63;;;3.90;;
8540;SDS011;4308;51.294;6.590;2022-12-20T09:09:14;4.67;;;3.57;;
8540;SDS011;4308;51.294;6.590;2022-12-20T09:11:41;3.73;;;3.07;;
8540;SDS011;4308;51.294;6.590;2022-12-20T09:14:09;5.60;;;3.87;;
8540;SDS011;4308;51.294;6.590;2022-12-20T09:16:36;4.77;;;3.40;;
8540;SDS011;4308;51.294;6.590;2022-12-20T09:19:04;4.80;;;3.43;;
8540;SDS011;4308;51.294;6.590;2022-12-20T09:21:32;7.87;;;3.67;;
8540;SDS011;4308;51.294;6.590;2022-12-20T09:24:00;6.77;;;3.87;;
8540;SDS011;4308;51.294;6.590;2022-12-20T09:26:28;4.40;;;3.70;;
8540;SDS011;4308;51.294;6.590;2022-12-20T09:28:55;6.20;;;3.57;;
8540;SDS011;4308;51.294;6.590;2022-12-20T09:31:24;6.57;;;3.77;;
8540;SDS011;4308;51.294;6.590;2022-12-20T09:33:55;6.90;;;3.70;;
8540;SDS011;4308;51.294;6.590;2022-12-20T09:36:23;3.80;;;2.97;;
8540;SDS011;4308;51.294;6.590;2022-12-20T09:38:52;5.53;;;3.23;;
8540;SDS011;4308;51.294;6.590;2022-12-20T09:43:48;8.13;;;3.67;;
8540;SDS011;4308;51.294;6.590;2022-12-20T09:46:16;6.83;;;3.63;;
8540;SDS011;4308;51.294;6.590;2022-12-20T09:48:44;4.23;;;2.80;;
8540;SDS011;4308;51.294;6.590;2022-12-20T09:56:35;4.83;;;2.70;;
8540;SDS011;4308;51.294;6.590;2022-12-20T09:59:04;5.20;;;3.03;;
8540;SDS011;4308;51.294;6.590;2022-12-20T10:01:33;5.20;;;3.03;;
8540;SDS011;4308;51.294;6.590;2022-12-20T10:04:09;6.27;;;3.23;;
8540;SDS011;4308;51.294;6.590;2022-12-20T10:09:18;4.90;;;2.83;;
8540;SDS011;4308;51.294;6.590;2022-12-20T10:16:54;4.20;;;2.93;;
8540;SDS011;4308;51.294;6.590;2022-12-20T10:24:19;5.70;;;2.77;;
8540;SDS011;4308;51.294;6.590;2022-12-20T10:26:50;5.40;;;3.37;;
8540;SDS011;4308;51.294;6.590;2022-12-20T10:29:18;5.33;;;3.20;;
8540;SDS011;4308;51.294;6.590;2022-12-20T10:31:48;6.67;;;3.30;;
8540;SDS011;4308;51.294;6.590;2022-12-20T10:34:16;5.43;;;3.43;;
8540;SDS011;4308;51.294;6.590;2022-12-20T10:36:43;5.37;;;3.03;;
8540;SDS011;4308;51.294;6.590;2022-12-20T10:39:11;5.30;;;2.90;;
8540;SDS011;4308;51.294;6.590;2022-12-20T10:44:19;3.83;;;2.77;;
8540;SDS011;4308;51.294;6.590;2022-12-20T10:46:57;8.20;;;3.00;;
8540;SDS011;4308;51.294;6.590;2022-12-20T10:51:57;5.70;;;2.90;;
8540;SDS011;4308;51.294;6.590;2022-12-20T10:54:35;4.20;;;2.50;;
8540;SDS011;4308;51.294;6.590;2022-12-20T10:57:20;7.60;;;3.10;;
8540;SDS011;4308;51.294;6.590;2022-12-20T11:00:09;3.83;;;2.73;;
8540;SDS011;4308;51.294;6.590;2022-12-20T11:02:36;4.23;;;2.80;;
8540;SDS011;4308;51.294;6.590;2022-12-20T11:07:37;4.40;;;3.40;;
8540;SDS011;4308;51.294;6.590;2022-12-20T11:10:19;8.83;;;3.13;;
8540;SDS011;4308;51.294;6.590;2022-12-20T11:15:22;6.33;;;2.77;;
8540;SDS011;4308;51.294;6.590;2022-12-20T11:18:25;5.70;;;3.13;;
8540;SDS011;4308;51.294;6.590;2022-12-20T11:21:33;3.33;;;2.97;;
8540;SDS011;4308;51.294;6.590;2022-12-20T11:23:59;6.03;;;3.17;;
8540;SDS011;4308;51.294;6.590;2022-12-20T11:26:39;4.10;;;2.87;;
8540;SDS011;4308;51.294;6.590;2022-12-20T11:29:22;3.63;;;3.33;;
8540;SDS011;4308;51.294;6.590;2022-12-20T11:32:07;4.47;;;3.10;;
8540;SDS011;4308;51.294;6.590;2022-12-20T11:34:52;7.43;;;3.53;;
8540;SDS011;4308;51.294;6.590;2022-12-20T11:37:25;4.93;;;3.43;;
8540;SDS011;4308;51.294;6.590;2022-12-20T11:42:24;6.53;;;3.03;;
8540;SDS011;4308;51.294;6.590;2022-12-20T11:47:46;4.10;;;2.90;;
8540;SDS011;4308;51.294;6.590;2022-12-20T11:52:53;10.83;;;3.33;;
8540;SDS011;4308;51.294;6.590;2022-12-20T11:55:26;5.13;;;3.10;;
8540;SDS011;4308;51.294;6.590;2022-12-20T11:58:02;6.10;;;3.27;;
8540;SDS011;4308;51.294;6.590;2022-12-20T12:00:51;3.90;;;2.93;;
8540;SDS011;4308;51.294;6.590;2022-12-20T12:03:22;5.63;;;2.80;;
8540;SDS011;4308;51.294;6.590;2022-12-20T12:05:53;6.07;;;3.40;;
8540;SDS011;4308;51.294;6.590;2022-12-20T12:08:45;5.47;;;3.13;;
8540;SDS011;4308;51.294;6.590;2022-12-20T12:13:58;4.10;;;2.57;;
8540;SDS011;4308;51.294;6.590;2022-12-20T12:16:33;8.70;;;2.57;;
8540;SDS011;4308;51.294;6.590;2022-12-20T12:19:02;3.07;;;2.77;;
8540;SDS011;4308;51.294;6.590;2022-12-20T12:21:34;8.17;;;3.20;;
8540;SDS011;4308;51.294;6.590;2022-12-20T12:24:13;7.57;;;2.80;;
8540;SDS011;4308;51.294;6.590;2022-12-20T12:26:43;5.87;;;2.90;;
8540;SDS011;4308;51.294;6.590;2022-12-20T12:29:12;3.43;;;1.97;;
8540;SDS011;4308;51.294;6.590;2022-12-20T12:39:39;6.27;;;2.13;;
8540;SDS011;4308;51.294;6.590;2022-12-20T12:47:47;2.80;;;1.87;;
8540;SDS011;4308;51.294;6.590;2022-12-20T12:50:39;3.90;;;2.00;;
8540;SDS011;4308;51.294;6.590;2022-12-20T12:53:12;4.40;;;2.40;;
8540;SDS011;4308;51.294;6.590;2022-12-20T12:55:42;4.30;;;2.60;;
8540;SDS011;4308;51.294;6.590;2022-12-20T13:03:38;10.37;;;4.37;;
8540;SDS011;4308;51.294;6.590;2022-12-20T13:09:09;12.47;;;5.53;;
8540;SDS011;4308;51.294;6.590;2022-12-20T13:11:37;11.07;;;6.20;;
8540;SDS011;4308;51.294;6.590;2022-12-20T13:16:52;11.77;;;5.90;;
8540;SDS011;4308;51.294;6.590;2022-12-20T13:19:40;14.87;;;6.27;;
8540;SDS011;4308;51.294;6.590;2022-12-20T13:22:19;17.07;;;8.37;;
8540;SDS011;4308;51.294;6.590;2022-12-20T13:29:59;10.43;;;5.00;;
8540;SDS011;4308;51.294;6.590;2022-12-20T13:37:54;10.10;;;5.43;;
8540;SDS011;4308;51.294;6.590;2022-12-20T13:42:52;9.17;;;5.80;;
8540;SDS011;4308;51.294;6.590;2022-12-20T13:45:20;10.03;;;4.83;;
8540;SDS011;4308;51.294;6.590;2022-12-20T13:47:50;12.33;;;5.03;;
8540;SDS011;4308;51.294;6.590;2022-12-20T13:50:25;9.77;;;3.87;;
8540;SDS011;4308;51.294;6.590;2022-12-20T13:52:53;12.20;;;5.20;;
8540;SDS011;4308;51.294;6.590;2022-12-20T13:55:26;9.47;;;4.80;;
8540;SDS011;4308;51.294;6.590;2022-12-20T13:58:02;7.27;;;3.80;;
8540;SDS011;4308;51.294;6.590;2022-12-20T14:00:30;10.87;;;3.60;;
8540;SDS011;4308;51.294;6.590;2022-12-20T14:02:59;8.07;;;3.00;;
8540;SDS011;4308;51.294;6.590;2022-12-20T14:05:31;7.63;;;3.60;;
8540;SDS011;4308;51.294;6.590;2022-12-20T14:08:00;9.30;;;4.03;;
8540;SDS011;4308;51.294;6.590;2022-12-20T14:10:29;7.00;;;3.87;;
8540;SDS011;4308;51.294;6.590;2022-12-20T14:12:57;5.10;;;3.17;;
8540;SDS011;4308;51.294;6.590;2022-12-20T14:15:26;6.93;;;3.77;;
8540;SDS011;4308;51.294;6.590;2022-12-20T14:20:53;5.67;;;3.30;;
8540;SDS011;4308;51.294;6.590;2022-12-20T14:23:22;6.67;;;3.83;;
8540;SDS011;4308;51.294;6.590;2022-12-20T14:25:52;8.03;;;4.20;;
8540;SDS011;4308;51.294;6.590;2022-12-20T14:30:53;4.53;;;2.83;;
8540;SDS011;4308;51.294;6.590;2022-12-20T14:33:24;4.67;;;2.60;;
8540;SDS011;4308;51.294;6.590;2022-12-20T14:35:52;8.43;;;2.90;;
8540;SDS011;4308;51.294;6.590;2022-12-20T14:38:21;7.33;;;3.23;;
8540;SDS011;4308;51.294;6.590;2022-12-20T14:40:49;5.83;;;3.07;;
8540;SDS011;4308;51.294;6.590;2022-12-20T14:43:24;6.93;;;2.97;;
8540;SDS011;4308;51.294;6.590;2022-12-20T14:46:05;6.53;;;3.17;;
8540;SDS011;4308;51.294;6.590;2022-12-20T14:48:33;6.80;;;2.83;;
8540;SDS011;4308;51.294;6.590;2022-12-20T14:51:03;7.53;;;3.30;;
8540;SDS011;4308;51.294;6.590;2022-12-20T14:53:30;6.83;;;2.97;;
8540;SDS011;4308;51.294;6.590;2022-12-20T14:55:58;6.10;;;3.57;;
8540;SDS011;4308;51.294;6.590;2022-12-20T14:58:27;5.77;;;3.03;;
8540;SDS011;4308;51.294;6.590;2022-12-20T15:01:02;5.17;;;2.63;;
8540;SDS011;4308;51.294;6.590;2022-12-20T15:03:30;7.20;;;2.53;;
8540;SDS011;4308;51.294;6.590;2022-12-20T15:05:58;6.80;;;2.70;;
8540;SDS011;4308;51.294;6.590;2022-12-20T15:08:30;6.07;;;2.80;;
8540;SDS011;4308;51.294;6.590;2022-12-20T15:13:38;4.00;;;2.63;;
8540;SDS011;4308;51.294;6.590;2022-12-20T15:16:13;10.10;;;3.27;;
8540;SDS011;4308;51.294;6.590;2022-12-20T15:18:41;6.23;;;3.10;;
8540;SDS011;4308;51.294;6.590;2022-12-20T15:21:16;11.53;;;2.83;;
8540;SDS011;4308;51.294;6.590;2022-12-20T15:23:48;4.83;;;2.80;;
8540;SDS011;4308;51.294;6.590;2022-12-20T15:26:17;4.20;;;2.90;;
8540;SDS011;4308;51.294;6.590;2022-12-20T15:28:45;7.23;;;3.13;;
8540;SDS011;4308;51.294;6.590;2022-12-20T15:31:13;11.03;;;3.83;;
8540;SDS011;4308;51.294;6.590;2022-12-20T15:33:44;9.23;;;3.43;;
8540;SDS011;4308;51.294;6.590;2022-12-20T15:36:15;5.67;;;3.37;;
8540;SDS011;4308;51.294;6.590;2022-12-20T15:38:43;7.80;;;3.77;;
8540;SDS011;4308;51.294;6.590;2022-12-20T15:41:31;5.50;;;3.30;;
8540;SDS011;4308;51.294;6.590;2022-12-20T15:44:00;10.23;;;4.17;;
8540;SDS011;4308;51.294;6.590;2022-12-20T15:46:29;8.60;;;4.17;;
8540;SDS011;4308;51.294;6.590;2022-12-20T15:48:58;6.83;;;4.10;;
8540;SDS011;4308;51.294;6.590;2022-12-20T15:51:34;7.70;;;3.97;;
8540;SDS011;4308;51.294;6.590;2022-12-20T15:54:03;6.77;;;4.60;;
8540;SDS011;4308;51.294;6.590;2022-12-20T15:56:34;7.50;;;4.23;;
8540;SDS011;4308;51.294;6.590;2022-12-20T15:59:02;7.67;;;4.10;;
8540;SDS011;4308;51.294;6.590;2022-12-20T16:01:50;6.20;;;4.00;;
8540;SDS011;4308;51.294;6.590;2022-12-20T16:04:18;14.57;;;5.23;;
8540;SDS011;4308;51.294;6.590;2022-12-20T16:06:46;9.67;;;4.73;;
8540;SDS011;4308;51.294;6.590;2022-12-20T16:09:14;11.90;;;4.27;;
8540;SDS011;4308;51.294;6.590;2022-12-20T16:11:42;12.43;;;4.30;;
8540;SDS011;4308;51.294;6.590;2022-12-20T16:14:16;9.13;;;3.33;;
8540;SDS011;4308;51.294;6.590;2022-12-20T16:16:44;11.93;;;4.60;;
8540;SDS011;4308;51.294;6.590;2022-12-20T16:19:12;9.27;;;4.43;;
8540;SDS011;4308;51.294;6.590;2022-12-20T16:21:44;10.30;;;4.53;;
8540;SDS011;4308;51.294;6.590;2022-12-20T16:24:13;10.43;;;5.40;;
8540;SDS011;4308;51.294;6.590;2022-12-20T16:26:41;9.77;;;4.63;;
8540;SDS011;4308;51.294;6.590;2022-12-20T16:29:08;13.37;;;5.13;;
8540;SDS011;4308;51.294;6.590;2022-12-20T16:31:38;10.33;;;4.47;;
8540;SDS011;4308;51.294;6.590;2022-12-20T16:34:06;7.57;;;4.50;;
8540;SDS011;4308;51.294;6.590;2022-12-20T16:36:36;13.53;;;5.60;;
8540;SDS011;4308;51.294;6.590;2022-12-20T16:39:03;10.03;;;5.20;;
8540;SDS011;4308;51.294;6.590;2022-12-20T16:41:31;9.73;;;5.00;;
8540;SDS011;4308;51.294;6.590;2022-12-20T16:44:00;8.13;;;4.80;;
8540;SDS011;4308;51.294;6.590;2022-12-20T16:46:29;11.17;;;5.03;;
8540;SDS011;4308;51.294;6.590;2022-12-20T16:48:58;8.17;;;4.10;;
8540;SDS011;4308;51.294;6.590;2022-12-20T16:53:54;6.93;;;3.77;;
8540;SDS011;4308;51.294;6.590;2022-12-20T16:56:42;10.50;;;4.50;;
8540;SDS011;4308;51.294;6.590;2022-12-20T16:59:10;6.23;;;4.17;;
8540;SDS011;4308;51.294;6.590;2022-12-20T17:01:48;7.83;;;5.03;;
8540;SDS011;4308;51.294;6.590;2022-12-20T17:04:18;8.23;;;4.93;;
8540;SDS011;4308;51.294;6.590;2022-12-20T17:06:46;10.07;;;5.37;;
8540;SDS011;4308;51.294;6.590;2022-12-20T17:09:13;9.43;;;5.60;;
8540;SDS011;4308;51.294;6.590;2022-12-20T17:11:59;9.43;;;6.50;;
8540;SDS011;4308;51.294;6.590;2022-12-20T17:14:26;12.53;;;6.23;;
8540;SDS011;4308;51.294;6.590;2022-12-20T17:16:54;12.03;;;7.20;;